sensor_id;sensor_type;location;lat;lon;timestamp;pressure;altitude;pressure_sealevel;temperature;humidity
63343;BME280;49465;57.664;39.686;2023-11-19T00:01:55;101344.31;;;-1.92;48.09
63343;BME280;49465;57.664;39.686;2023-11-19T00:04:24;101347.81;;;-1.73;48.04
63343;BME280;49465;57.664;39.686;2023-11-19T00:06:58;101346.97;;;-1.74;47.99
63343;BME280;49465;57.664;39.686;2023-11-19T00:09:32;101340.13;;;-3.16;50.33
63343;BME280;49465;57.664;39.686;2023-11-19T00:11:59;101337.41;;;-2.04;48.32
63343;BME280;49465;57.664;39.686;2023-11-19T00:14:34;101333.00;;;-2.34;48.68
63343;BME280;49465;57.664;39.686;2023-11-19T00:17:11;101339.50;;;-2.87;50.36
63343;BME280;49465;57.664;39.686;2023-11-19T00:19:47;101338.53;;;-3.02;50.59
63343;BME280;49465;57.664;39.686;2023-11-19T00:22:20;101337.41;;;-2.09;48.73
63343;BME280;49465;57.664;39.686;2023-11-19T00:24:53;101340.56;;;-2.58;49.71
63343;BME280;49465;57.664;39.686;2023-11-19T00:27:27;101331.88;;;-2.78;50.39
63343;BME280;49465;57.664;39.686;2023-11-19T00:30:05;101322.44;;;-2.81;50.09
63343;BME280;49465;57.664;39.686;2023-11-19T00:32:45;101333.69;;;-2.62;50.36
63343;BME280;49465;57.664;39.686;2023-11-19T00:35:14;101333.00;;;-2.30;49.35
63343;BME280;49465;57.664;39.686;2023-11-19T00:37:46;101332.06;;;-2.47;49.52
63343;BME280;49465;57.664;39.686;2023-11-19T00:40:19;101327.53;;;-2.87;50.17
63343;BME280;49465;57.664;39.686;2023-11-19T00:42:51;101339.75;;;-2.52;49.18
63343;BME280;49465;57.664;39.686;2023-11-19T00:45:25;101335.22;;;-2.87;50.15
63343;BME280;49465;57.664;39.686;2023-11-19T00:47:58;101333.84;;;-3.47;50.22
63343;BME280;49465;57.664;39.686;2023-11-19T00:50:28;101334.56;;;-2.55;49.07
63343;BME280;49465;57.664;39.686;2023-11-19T00:53:00;101322.59;;;-2.56;49.25
63343;BME280;49465;57.664;39.686;2023-11-19T00:55:32;101318.38;;;-2.48;48.72
63343;BME280;49465;57.664;39.686;2023-11-19T00:58:06;101311.59;;;-2.33;48.71
63343;BME280;49465;57.664;39.686;2023-11-19T01:00:37;101312.50;;;-2.22;47.97
63343;BME280;49465;57.664;39.686;2023-11-19T01:03:09;101309.00;;;-2.33;48.31
63343;BME280;49465;57.664;39.686;2023-11-19T01:05:45;101310.25;;;-3.06;48.80
63343;BME280;49465;57.664;39.686;2023-11-19T01:08:16;101299.91;;;-3.19;48.88
63343;BME280;49465;57.664;39.686;2023-11-19T01:10:50;101312.47;;;-2.28;48.37
63343;BME280;49465;57.664;39.686;2023-11-19T01:13:24;101303.19;;;-1.95;47.84
63343;BME280;49465;57.664;39.686;2023-11-19T01:15:58;101300.66;;;-1.88;47.12
63343;BME280;49465;57.664;39.686;2023-11-19T01:18:27;101296.53;;;-3.14;49.13
63343;BME280;49465;57.664;39.686;2023-11-19T01:20:59;101290.97;;;-2.47;48.81
63343;BME280;49465;57.664;39.686;2023-11-19T01:23:36;101290.16;;;-2.39;48.49
63343;BME280;49465;57.664;39.686;2023-11-19T01:26:03;101292.59;;;-2.63;48.74
63343;BME280;49465;57.664;39.686;2023-11-19T01:28:36;101287.41;;;-2.74;48.95
63343;BME280;49465;57.664;39.686;2023-11-19T01:31:08;101288.16;;;-2.87;49.14
63343;BME280;49465;57.664;39.686;2023-11-19T01:33:43;101284.72;;;-2.89;49.41
63343;BME280;49465;57.664;39.686;2023-11-19T01:36:18;101277.59;;;-3.30;49.37
63343;BME280;49465;57.664;39.686;2023-11-19T01:38:47;101267.47;;;-3.10;49.74
63343;BME280;49465;57.664;39.686;2023-11-19T01:41:22;101280.59;;;-2.70;48.79
63343;BME280;49465;57.664;39.686;2023-11-19T01:43:53;101278.88;;;-2.68;48.82
63343;BME280;49465;57.664;39.686;2023-11-19T01:46:27;101281.50;;;-2.53;48.52
63343;BME280;49465;57.664;39.686;2023-11-19T01:49:00;101273.09;;;-2.27;47.54
63343;BME280;49465;57.664;39.686;2023-11-19T01:51:28;101263.72;;;-3.52;48.86
63343;BME280;49465;57.664;39.686;2023-11-19T01:54:00;101267.06;;;-2.39;47.89
63343;BME280;49465;57.664;39.686;2023-11-19T01:56:36;101264.53;;;-2.23;47.67
63343;BME280;49465;57.664;39.686;2023-11-19T01:59:10;101267.16;;;-2.11;47.21
63343;BME280;49465;57.664;39.686;2023-11-19T02:01:42;101255.50;;;-3.13;48.31
63343;BME280;49465;57.664;39.686;2023-11-19T02:04:15;101256.81;;;-2.22;47.06
63343;BME280;49465;57.664;39.686;2023-11-19T02:06:52;101250.06;;;-2.06;47.03
63343;BME280;49465;57.664;39.686;2023-11-19T02:09:27;101253.44;;;-2.14;47.35
63343;BME280;49465;57.664;39.686;2023-11-19T02:11:59;101259.44;;;-2.12;47.45
63343;BME280;49465;57.664;39.686;2023-11-19T02:14:28;101250.91;;;-1.99;46.86
63343;BME280;49465;57.664;39.686;2023-11-19T02:17:00;101252.63;;;-1.95;46.71
63343;BME280;49465;57.664;39.686;2023-11-19T02:19:29;101262.38;;;-3.07;47.61
63343;BME280;49465;57.664;39.686;2023-11-19T02:22:01;101254.25;;;-2.20;47.42
63343;BME280;49465;57.664;39.686;2023-11-19T02:24:37;101264.06;;;-3.06;48.03
63343;BME280;49465;57.664;39.686;2023-11-19T02:27:21;101265.38;;;-2.29;47.58
63343;BME280;49465;57.664;39.686;2023-11-19T02:30:01;101260.56;;;-3.18;48.25
63343;BME280;49465;57.664;39.686;2023-11-19T02:32:32;101255.97;;;-2.22;47.28
63343;BME280;49465;57.664;39.686;2023-11-19T02:35:07;101257.72;;;-2.09;46.54
63343;BME280;49465;57.664;39.686;2023-11-19T02:37:42;101253.47;;;-2.01;46.55
63343;BME280;49465;57.664;39.686;2023-11-19T02:40:17;101252.88;;;-3.18;48.36
63343;BME280;49465;57.664;39.686;2023-11-19T02:42:50;101247.41;;;-2.24;47.47
63343;BME280;49465;57.664;39.686;2023-11-19T02:45:19;101244.00;;;-2.17;47.37
63343;BME280;49465;57.664;39.686;2023-11-19T02:47:51;101238.03;;;-2.13;47.16
63343;BME280;49465;57.664;39.686;2023-11-19T02:50:26;101232.91;;;-2.04;47.06
63343;BME280;49465;57.664;39.686;2023-11-19T02:53:02;101234.63;;;-2.01;46.93
63343;BME280;49465;57.664;39.686;2023-11-19T02:55:36;101238.34;;;-3.17;47.85
63343;BME280;49465;57.664;39.686;2023-11-19T02:58:08;101238.00;;;-2.25;47.17
63343;BME280;49465;57.664;39.686;2023-11-19T03:00:48;101226.88;;;-2.12;46.95
63343;BME280;49465;57.664;39.686;2023-11-19T03:03:34;101233.75;;;-2.05;46.60
63343;BME280;49465;57.664;39.686;2023-11-19T03:06:06;101220.91;;;-2.03;46.63
63343;BME280;49465;57.664;39.686;2023-11-19T03:08:40;101220.06;;;-2.05;46.74
63343;BME280;49465;57.664;39.686;2023-11-19T03:11:14;101213.19;;;-2.03;46.80
63343;BME280;49465;57.664;39.686;2023-11-19T03:13:51;101206.34;;;-2.09;46.89
63343;BME280;49465;57.664;39.686;2023-11-19T03:16:22;101217.44;;;-2.10;46.76
63343;BME280;49465;57.664;39.686;2023-11-19T03:18:55;101220.91;;;-2.09;46.58
63343;BME280;49465;57.664;39.686;2023-11-19T03:21:32;101213.16;;;-2.12;46.49
63343;BME280;49465;57.664;39.686;2023-11-19T03:24:01;101213.19;;;-2.15;47.18
63343;BME280;49465;57.664;39.686;2023-11-19T03:26:30;101206.31;;;-2.18;46.65
63343;BME280;49465;57.664;39.686;2023-11-19T03:29:02;101210.59;;;-2.19;46.82
63343;BME280;49465;57.664;39.686;2023-11-19T03:31:36;101204.63;;;-2.13;46.40
63343;BME280;49465;57.664;39.686;2023-11-19T03:34:13;101205.44;;;-2.20;47.08
63343;BME280;49465;57.664;39.686;2023-11-19T03:36:49;101217.78;;;-3.20;48.73
63343;BME280;49465;57.664;39.686;2023-11-19T03:39:18;101213.09;;;-2.39;47.20
63343;BME280;49465;57.664;39.686;2023-11-19T03:41:48;101206.56;;;-3.41;49.12
63343;BME280;49465;57.664;39.686;2023-11-19T03:44:21;101207.94;;;-2.43;47.81
63343;BME280;49465;57.664;39.686;2023-11-19T03:46:51;101206.28;;;-2.26;47.03
63343;BME280;49465;57.664;39.686;2023-11-19T03:49:23;101202.00;;;-2.28;47.42
63343;BME280;49465;57.664;39.686;2023-11-19T03:51:52;101204.59;;;-2.19;46.91
63343;BME280;49465;57.664;39.686;2023-11-19T03:54:27;101202.91;;;-2.17;47.35
63343;BME280;49465;57.664;39.686;2023-11-19T03:56:56;101199.66;;;-3.43;49.02
63343;BME280;49465;57.664;39.686;2023-11-19T03:59:33;101198.56;;;-2.32;47.44
63343;BME280;49465;57.664;39.686;2023-11-19T04:02:00;101196.91;;;-2.14;46.91
63343;BME280;49465;57.664;39.686;2023-11-19T04:04:34;101200.63;;;-3.30;49.01
63343;BME280;49465;57.664;39.686;2023-11-19T04:07:06;101191.72;;;-2.33;48.06
63343;BME280;49465;57.664;39.686;2023-11-19T04:09:40;101184.91;;;-2.14;47.44
63343;BME280;49465;57.664;39.686;2023-11-19T04:12:12;101190.94;;;-2.07;47.11
63343;BME280;49465;57.664;39.686;2023-11-19T04:14:44;101185.78;;;-2.06;47.12
63343;BME280;49465;57.664;39.686;2023-11-19T04:17:18;101189.22;;;-2.04;46.96
63343;BME280;49465;57.664;39.686;2023-11-19T04:19:54;101181.50;;;-2.02;47.27
63343;BME280;49465;57.664;39.686;2023-11-19T04:22:27;101184.06;;;-2.01;47.09
63343;BME280;49465;57.664;39.686;2023-11-19T04:24:56;101184.94;;;-1.99;46.82
63343;BME280;49465;57.664;39.686;2023-11-19T04:27:28;101185.81;;;-2.00;46.53
63343;BME280;49465;57.664;39.686;2023-11-19T04:30:01;101183.66;;;-3.08;48.94
63343;BME280;49465;57.664;39.686;2023-11-19T04:32:36;101189.19;;;-2.25;47.35
63343;BME280;49465;57.664;39.686;2023-11-19T04:35:08;101179.78;;;-2.09;46.93
63343;BME280;49465;57.664;39.686;2023-11-19T04:37:38;101175.88;;;-3.22;49.17
63343;BME280;49465;57.664;39.686;2023-11-19T04:40:11;101176.31;;;-2.28;48.15
63343;BME280;49465;57.664;39.686;2023-11-19T04:42:44;101178.38;;;-3.34;49.25
63343;BME280;49465;57.664;39.686;2023-11-19T04:45:15;101181.75;;;-3.40;50.00
63343;BME280;49465;57.664;39.686;2023-11-19T04:47:45;101180.59;;;-2.30;48.31
63343;BME280;49465;57.664;39.686;2023-11-19T04:50:14;101179.78;;;-2.09;47.77
63343;BME280;49465;57.664;39.686;2023-11-19T04:52:49;101177.22;;;-1.99;47.25
63343;BME280;49465;57.664;39.686;2023-11-19T04:55:18;101180.66;;;-1.93;47.08
63343;BME280;49465;57.664;39.686;2023-11-19T04:57:49;101182.34;;;-2.00;46.85
63343;BME280;49465;57.664;39.686;2023-11-19T05:00:27;101184.97;;;-1.94;46.87
63343;BME280;49465;57.664;39.686;2023-11-19T05:02:58;101176.84;;;-3.09;49.22
63343;BME280;49465;57.664;39.686;2023-11-19T05:05:32;101181.47;;;-2.16;48.49
63343;BME280;49465;57.664;39.686;2023-11-19T05:08:02;101184.09;;;-1.99;47.49
63343;BME280;49465;57.664;39.686;2023-11-19T05:10:34;101182.72;;;-3.27;49.15
63343;BME280;49465;57.664;39.686;2023-11-19T05:13:11;101182.31;;;-2.14;47.81
63343;BME280;49465;57.664;39.686;2023-11-19T05:15:41;101177.22;;;-1.97;47.72
63343;BME280;49465;57.664;39.686;2023-11-19T05:18:10;101176.72;;;-3.22;49.04
63343;BME280;49465;57.664;39.686;2023-11-19T05:20:48;101180.63;;;-2.10;48.55
63343;BME280;49465;57.664;39.686;2023-11-19T05:23:15;101179.78;;;-1.92;47.41
63343;BME280;49465;57.664;39.686;2023-11-19T05:25:44;101183.69;;;-3.02;49.63
63343;BME280;49465;57.664;39.686;2023-11-19T05:28:15;101183.22;;;-2.09;48.03
63343;BME280;49465;57.664;39.686;2023-11-19T05:30:47;101181.53;;;-1.91;47.70
63343;BME280;49465;57.664;39.686;2023-11-19T05:33:16;101182.38;;;-1.85;47.41
63343;BME280;49465;57.664;39.686;2023-11-19T05:35:54;101182.88;;;-2.95;49.76
63343;BME280;49465;57.664;39.686;2023-11-19T05:38:23;101180.66;;;-2.01;48.22
63343;BME280;49465;57.664;39.686;2023-11-19T05:41:02;101181.53;;;-1.85;48.02
63343;BME280;49465;57.664;39.686;2023-11-19T05:43:32;101184.09;;;-1.77;47.62
63343;BME280;49465;57.664;39.686;2023-11-19T05:46:06;101188.38;;;-1.73;47.22
63343;BME280;49465;57.664;39.686;2023-11-19T05:48:43;101189.03;;;-2.62;49.93
63343;BME280;49465;57.664;39.686;2023-11-19T05:51:14;101177.22;;;-1.95;47.70
63343;BME280;49465;57.664;39.686;2023-11-19T05:53:46;101187.53;;;-1.77;47.19
63343;BME280;49465;57.664;39.686;2023-11-19T05:56:18;101185.81;;;-1.72;47.48
63343;BME280;49465;57.664;39.686;2023-11-19T05:58:50;101185.50;;;-2.83;49.47
63343;BME280;49465;57.664;39.686;2023-11-19T06:01:25;101183.22;;;-1.90;47.67
63343;BME280;49465;57.664;39.686;2023-11-19T06:03:52;101174.66;;;-1.71;46.95
63343;BME280;49465;57.664;39.686;2023-11-19T06:06:21;101168.66;;;-1.67;47.55
63343;BME280;49465;57.664;39.686;2023-11-19T06:08:55;101177.25;;;-1.58;47.20
63343;BME280;49465;57.664;39.686;2023-11-19T06:11:27;101179.81;;;-1.55;47.09
63343;BME280;49465;57.664;39.686;2023-11-19T06:14:01;101189.25;;;-1.51;46.97
63343;BME280;49465;57.664;39.686;2023-11-19T06:16:27;101189.25;;;-1.47;46.90
63343;BME280;49465;57.664;39.686;2023-11-19T06:19:05;101190.09;;;-1.46;47.10
63343;BME280;49465;57.664;39.686;2023-11-19T06:21:34;101185.81;;;-1.46;46.95
63343;BME280;49465;57.664;39.686;2023-11-19T06:24:06;101184.94;;;-1.43;46.76
63343;BME280;49465;57.664;39.686;2023-11-19T06:26:37;101190.75;;;-2.60;49.69
63343;BME280;49465;57.664;39.686;2023-11-19T06:29:07;101179.81;;;-1.74;47.55
63343;BME280;49465;57.664;39.686;2023-11-19T06:31:43;101180.69;;;-1.49;47.15
63343;BME280;49465;57.664;39.686;2023-11-19T06:34:15;101187.53;;;-1.37;47.09
63343;BME280;49465;57.664;39.686;2023-11-19T06:36:44;101185.81;;;-1.38;47.25
63343;BME280;49465;57.664;39.686;2023-11-19T06:39:19;101186.69;;;-1.31;47.03
63343;BME280;49465;57.664;39.686;2023-11-19T06:41:59;101192.69;;;-1.31;46.77
63343;BME280;49465;57.664;39.686;2023-11-19T06:44:31;101193.53;;;-1.29;47.15
63343;BME280;49465;57.664;39.686;2023-11-19T06:47:00;101190.97;;;-1.35;47.15
63343;BME280;49465;57.664;39.686;2023-11-19T06:49:34;101196.09;;;-1.24;47.05
63343;BME280;49465;57.664;39.686;2023-11-19T06:52:03;101192.66;;;-1.20;46.92
63343;BME280;49465;57.664;39.686;2023-11-19T06:54:33;101184.09;;;-1.17;46.94
63343;BME280;49465;57.664;39.686;2023-11-19T06:57:02;101187.50;;;-1.17;46.80
63343;BME280;49465;57.664;39.686;2023-11-19T06:59:32;101181.50;;;-1.11;47.49
63343;BME280;49465;57.664;39.686;2023-11-19T07:02:00;101199.44;;;-2.33;49.15
63343;BME280;49465;57.664;39.686;2023-11-19T07:04:40;101192.66;;;-1.42;48.32
63343;BME280;49465;57.664;39.686;2023-11-19T07:07:32;101197.81;;;-1.31;48.21
63343;BME280;49465;57.664;39.686;2023-11-19T07:10:02;101196.09;;;-1.24;47.95
63343;BME280;49465;57.664;39.686;2023-11-19T07:12:51;101196.84;;;-2.28;49.06
63343;BME280;49465;57.664;39.686;2023-11-19T07:15:28;101204.69;;;-1.47;48.39
63343;BME280;49465;57.664;39.686;2023-11-19T07:18:07;101208.09;;;-1.15;47.70
63343;BME280;49465;57.664;39.686;2023-11-19T07:20:38;101205.47;;;-2.05;49.10
63343;BME280;49465;57.664;39.686;2023-11-19T07:23:09;101203.81;;;-1.26;47.94
63343;BME280;49465;57.664;39.686;2023-11-19T07:25:42;101216.66;;;-1.01;48.25
63343;BME280;49465;57.664;39.686;2023-11-19T07:28:14;101198.66;;;-1.92;49.36
63343;BME280;49465;57.664;39.686;2023-11-19T07:30:41;101207.22;;;-1.08;48.11
63343;BME280;49465;57.664;39.686;2023-11-19T07:33:24;101197.81;;;-1.63;49.48
63343;BME280;49465;57.664;39.686;2023-11-19T07:35:58;101192.63;;;-0.94;48.30
63343;BME280;49465;57.664;39.686;2023-11-19T07:38:35;101197.75;;;-0.94;48.19
63343;BME280;49465;57.664;39.686;2023-11-19T07:41:07;101202.94;;;-1.86;49.62
63343;BME280;49465;57.664;39.686;2023-11-19T07:43:44;101200.34;;;-0.94;48.17
63343;BME280;49465;57.664;39.686;2023-11-19T07:46:24;101195.13;;;-0.74;47.93
63343;BME280;49465;57.664;39.686;2023-11-19T07:48:53;101204.69;;;-1.62;49.76
63343;BME280;49465;57.664;39.686;2023-11-19T07:51:25;101201.13;;;-0.73;48.13
63343;BME280;49465;57.664;39.686;2023-11-19T07:53:54;101196.09;;;-1.84;49.65
63343;BME280;49465;57.664;39.686;2023-11-19T07:56:23;101200.25;;;-0.71;48.46
63343;BME280;49465;57.664;39.686;2023-11-19T07:58:54;101197.81;;;-1.71;49.37
63343;BME280;49465;57.664;39.686;2023-11-19T08:01:23;101191.63;;;-0.59;48.17
63343;BME280;49465;57.664;39.686;2023-11-19T08:03:49;101187.53;;;-1.63;49.17
63343;BME280;49465;57.664;39.686;2023-11-19T08:06:19;101191.63;;;-0.56;48.58
63343;BME280;49465;57.664;39.686;2023-11-19T08:08:50;101185.81;;;-1.47;49.44
63343;BME280;49465;57.664;39.686;2023-11-19T08:11:24;101189.25;;;-1.48;50.01
63343;BME280;49465;57.664;39.686;2023-11-19T08:13:50;101181.28;;;-0.47;48.12
63343;BME280;49465;57.664;39.686;2023-11-19T08:16:22;101183.22;;;-1.23;49.41
63343;BME280;49465;57.664;39.686;2023-11-19T08:18:56;101179.81;;;-1.43;49.35
63343;BME280;49465;57.664;39.686;2023-11-19T08:21:30;101178.63;;;-0.37;48.16
63343;BME280;49465;57.664;39.686;2023-11-19T08:24:04;101178.56;;;-0.22;48.23
63343;BME280;49465;57.664;39.686;2023-11-19T08:26:36;101175.44;;;-1.04;48.80
63343;BME280;49465;57.664;39.686;2023-11-19T08:29:13;101173.41;;;-0.21;47.96
63343;BME280;49465;57.664;39.686;2023-11-19T08:31:42;101161.78;;;-1.28;48.90
63343;BME280;49465;57.664;39.686;2023-11-19T08:34:09;101163.97;;;-0.23;48.47
63343;BME280;49465;57.664;39.686;2023-11-19T08:36:35;101159.53;;;-0.01;47.76
63343;BME280;49465;57.664;39.686;2023-11-19T08:39:05;101168.09;;;0.04;47.63
63343;BME280;49465;57.664;39.686;2023-11-19T08:41:31;101156.63;;;-1.15;49.16
63343;BME280;49465;57.664;39.686;2023-11-19T08:43:59;101160.06;;;-1.24;49.16
63343;BME280;49465;57.664;39.686;2023-11-19T08:46:28;101160.06;;;-1.29;49.04
63343;BME280;49465;57.664;39.686;2023-11-19T08:48:56;101169.09;;;-0.18;48.58
63343;BME280;49465;57.664;39.686;2023-11-19T08:51:24;101160.03;;;-1.16;48.90
63343;BME280;49465;57.664;39.686;2023-11-19T08:53:51;101174.09;;;0.03;48.37
63343;BME280;49465;57.664;39.686;2023-11-19T08:56:17;101165.16;;;-1.01;48.60
63343;BME280;49465;57.664;39.686;2023-11-19T08:58:43;101171.47;;;0.12;47.62
63343;BME280;49465;57.664;39.686;2023-11-19T09:01:12;101163.38;;;-0.87;48.17
63343;BME280;49465;57.664;39.686;2023-11-19T09:03:38;101162.78;;;0.24;47.80
63343;BME280;49465;57.664;39.686;2023-11-19T09:06:10;101161.66;;;-0.83;48.41
63343;BME280;49465;57.664;39.686;2023-11-19T09:08:41;101156.75;;;0.25;47.95
63343;BME280;49465;57.664;39.686;2023-11-19T09:11:08;101146.19;;;-0.74;48.22
63343;BME280;49465;57.664;39.686;2023-11-19T09:13:43;101150.66;;;0.35;47.79
63343;BME280;49465;57.664;39.686;2023-11-19T09:16:18;101144.44;;;-0.67;48.06
63343;BME280;49465;57.664;39.686;2023-11-19T09:18:45;101147.97;;;0.46;47.69
63343;BME280;49465;57.664;39.686;2023-11-19T09:21:16;101147.13;;;0.44;47.83
63343;BME280;49465;57.664;39.686;2023-11-19T09:23:45;101145.25;;;-0.57;48.08
63343;BME280;49465;57.664;39.686;2023-11-19T09:26:16;101150.44;;;-0.64;48.80
63343;BME280;49465;57.664;39.686;2023-11-19T09:28:44;101161.06;;;0.28;48.54
63343;BME280;49465;57.664;39.686;2023-11-19T09:31:14;101165.06;;;0.58;48.04
63343;BME280;49465;57.664;39.686;2023-11-19T09:33:41;101152.97;;;-0.57;48.79
63343;BME280;49465;57.664;39.686;2023-11-19T09:36:07;101162.53;;;0.55;47.96
63343;BME280;49465;57.664;39.686;2023-11-19T09:38:34;101155.47;;;-0.44;48.13
63343;BME280;49465;57.664;39.686;2023-11-19T09:41:07;101161.56;;;0.67;47.46
63343;BME280;49465;57.664;39.686;2023-11-19T09:43:38;101151.16;;;-0.38;47.69
63343;BME280;49465;57.664;39.686;2023-11-19T09:46:11;101148.66;;;-0.54;47.77
63343;BME280;49465;57.664;39.686;2023-11-19T09:48:39;101153.84;;;0.62;47.45
63343;BME280;49465;57.664;39.686;2023-11-19T09:51:09;101144.28;;;-0.36;47.37
63343;BME280;49465;57.664;39.686;2023-11-19T09:53:38;101143.47;;;-0.48;48.18
63343;BME280;49465;57.664;39.686;2023-11-19T09:56:07;101129.78;;;0.60;47.54
63343;BME280;49465;57.664;39.686;2023-11-19T09:58:39;101126.22;;;-0.33;47.39
63343;BME280;49465;57.664;39.686;2023-11-19T10:01:15;101133.13;;;0.71;47.41
63343;BME280;49465;57.664;39.686;2023-11-19T10:03:49;101136.47;;;0.79;47.64
63343;BME280;49465;57.664;39.686;2023-11-19T10:06:16;101127.00;;;-0.22;47.86
63343;BME280;49465;57.664;39.686;2023-11-19T10:08:51;101129.50;;;0.88;47.07
63343;BME280;49465;57.664;39.686;2023-11-19T10:11:32;101120.16;;;-0.22;47.23
63343;BME280;49465;57.664;39.686;2023-11-19T10:14:01;101119.16;;;0.86;46.74
63343;BME280;49465;57.664;39.686;2023-11-19T10:16:31;101119.13;;;-0.01;47.44
63343;BME280;49465;57.664;39.686;2023-11-19T10:19:00;101122.56;;;0.94;46.96
63343;BME280;49465;57.664;39.686;2023-11-19T10:21:33;101116.53;;;-0.01;47.49
63343;BME280;49465;57.664;39.686;2023-11-19T10:24:00;101115.84;;;-0.24;47.65
63343;BME280;49465;57.664;39.686;2023-11-19T10:26:29;101117.47;;;0.87;47.59
63343;BME280;49465;57.664;39.686;2023-11-19T10:28:59;101114.06;;;-0.13;47.07
63343;BME280;49465;57.664;39.686;2023-11-19T10:31:29;101121.97;;;0.66;47.99
63343;BME280;49465;57.664;39.686;2023-11-19T10:33:58;101116.69;;;-0.22;47.64
63343;BME280;49465;57.664;39.686;2023-11-19T10:36:40;101119.09;;;0.94;47.11
63343;BME280;49465;57.664;39.686;2023-11-19T10:39:09;101112.31;;;-0.08;47.51
63343;BME280;49465;57.664;39.686;2023-11-19T10:41:38;101114.81;;;0.93;47.59
63343;BME280;49465;57.664;39.686;2023-11-19T10:44:10;101111.91;;;1.19;47.06
63343;BME280;49465;57.664;39.686;2023-11-19T10:46:45;101120.75;;;1.01;47.70
63343;BME280;49465;57.664;39.686;2023-11-19T10:49:14;101123.34;;;0.98;48.01
63343;BME280;49465;57.664;39.686;2023-11-19T10:51:56;101128.38;;;0.25;46.60
63343;BME280;49465;57.664;39.686;2023-11-19T10:54:26;101119.88;;;1.02;47.45
63343;BME280;49465;57.664;39.686;2023-11-19T10:56:58;101128.41;;;0.22;46.27
63343;BME280;49465;57.664;39.686;2023-11-19T10:59:34;101130.22;;;0.11;46.69
63343;BME280;49465;57.664;39.686;2023-11-19T11:02:11;101121.69;;;-0.01;46.70
63343;BME280;49465;57.664;39.686;2023-11-19T11:04:45;101128.59;;;0.92;45.76
63343;BME280;49465;57.664;39.686;2023-11-19T11:07:17;101131.06;;;0.10;46.17
63343;BME280;49465;57.664;39.686;2023-11-19T11:09:54;101125.13;;;0.02;45.74
63343;BME280;49465;57.664;39.686;2023-11-19T11:12:24;101117.16;;;1.11;46.02
63343;BME280;49465;57.664;39.686;2023-11-19T11:14:57;101130.25;;;0.06;45.58
63343;BME280;49465;57.664;39.686;2023-11-19T11:17:30;101120.00;;;-0.05;45.50
63343;BME280;49465;57.664;39.686;2023-11-19T11:20:00;101121.75;;;-0.05;45.84
63343;BME280;49465;57.664;39.686;2023-11-19T11:22:29;101118.88;;;1.12;46.12
63343;BME280;49465;57.664;39.686;2023-11-19T11:27:54;101110.25;;;1.15;46.06
63343;BME280;49465;57.664;39.686;2023-11-19T11:30:39;101111.00;;;0.46;45.88
63343;BME280;49465;57.664;39.686;2023-11-19T11:33:41;101111.91;;;1.19;46.35
63343;BME280;49465;57.664;39.686;2023-11-19T11:36:20;101115.22;;;1.32;46.19
63343;BME280;49465;57.664;39.686;2023-11-19T11:38:51;101110.38;;;0.17;45.24
63343;BME280;49465;57.664;39.686;2023-11-19T11:41:23;101105.25;;;0.16;45.10
63343;BME280;49465;57.664;39.686;2023-11-19T11:43:50;101101.16;;;-0.10;45.50
63343;BME280;49465;57.664;39.686;2023-11-19T11:49:05;101093.25;;;0.10;44.77
63343;BME280;49465;57.664;39.686;2023-11-19T11:54:31;101085.19;;;1.22;46.02
63343;BME280;49465;57.664;39.686;2023-11-19T11:57:11;101095.47;;;0.50;44.86
63343;BME280;49465;57.664;39.686;2023-11-19T11:59:49;101094.09;;;0.14;44.78
63343;BME280;49465;57.664;39.686;2023-11-19T12:02:25;101092.16;;;1.15;44.52
63343;BME280;49465;57.664;39.686;2023-11-19T12:04:55;101090.63;;;0.18;44.24
63343;BME280;49465;57.664;39.686;2023-11-19T12:07:27;101082.75;;;1.08;45.80
63343;BME280;49465;57.664;39.686;2023-11-19T12:10:07;101078.72;;;0.02;44.85
63343;BME280;49465;57.664;39.686;2023-11-19T12:12:39;101079.41;;;1.01;45.36
63343;BME280;49465;57.664;39.686;2023-11-19T12:15:11;101083.03;;;-0.02;44.98
63343;BME280;49465;57.664;39.686;2023-11-19T12:17:42;101075.97;;;1.02;45.16
63343;BME280;49465;57.664;39.686;2023-11-19T12:20:11;101071.88;;;-0.04;44.91
63343;BME280;49465;57.664;39.686;2023-11-19T12:22:46;101074.38;;;0.05;44.41
63343;BME280;49465;57.664;39.686;2023-11-19T12:25:21;101068.34;;;0.90;44.09
63343;BME280;49465;57.664;39.686;2023-11-19T12:27:57;101071.81;;;0.04;44.08
63343;BME280;49465;57.664;39.686;2023-11-19T12:31:07;101078.38;;;0.38;44.98
63343;BME280;49465;57.664;39.686;2023-11-19T12:33:50;101078.75;;;-0.02;44.58
63343;BME280;49465;57.664;39.686;2023-11-19T12:36:29;101069.34;;;-0.06;44.75
63343;BME280;49465;57.664;39.686;2023-11-19T12:39:09;101064.16;;;0.83;43.98
63343;BME280;49465;57.664;39.686;2023-11-19T12:41:54;101067.34;;;1.03;44.43
63343;BME280;49465;57.664;39.686;2023-11-19T12:44:23;101066.03;;;-0.23;44.23
63343;BME280;49465;57.664;39.686;2023-11-19T12:47:13;101071.84;;;0.87;44.55
63343;BME280;49465;57.664;39.686;2023-11-19T12:49:59;101073.41;;;0.18;43.70
63343;BME280;49465;57.664;39.686;2023-11-19T12:52:28;101071.19;;;-0.28;44.31
63343;BME280;49465;57.664;39.686;2023-11-19T12:55:04;101071.16;;;0.71;43.78
63343;BME280;49465;57.664;39.686;2023-11-19T12:57:51;101073.59;;;0.00;44.53
63343;BME280;49465;57.664;39.686;2023-11-19T13:00:26;101072.84;;;0.75;44.94
63343;BME280;49465;57.664;39.686;2023-11-19T13:03:13;101071.81;;;0.89;44.70
63343;BME280;49465;57.664;39.686;2023-11-19T13:06:04;101067.56;;;-0.02;44.24
63343;BME280;49465;57.664;39.686;2023-11-19T13:08:46;101063.41;;;0.73;44.78
63343;BME280;49465;57.664;39.686;2023-11-19T13:11:39;101061.88;;;-0.46;44.72
63343;BME280;49465;57.664;39.686;2023-11-19T13:14:06;101064.34;;;0.64;44.44
63343;BME280;49465;57.664;39.686;2023-11-19T13:16:37;101056.47;;;0.76;43.63
63343;BME280;49465;57.664;39.686;2023-11-19T13:19:13;101061.72;;;-0.21;44.81
63343;BME280;49465;57.664;39.686;2023-11-19T13:21:53;101063.56;;;0.57;44.31